Thursday, May 24, 2018, 5:49 AM EDT
Back to Local

KHIE, Mt Washington Regional Airport

Location: Jefferson, NH, United States Lat: 44.367
Local Time: 5:49 AM EDT ( 9:49 GMT) Lon: -71.55
Time Zone: US/Eastern Elev: 1072 ft

Show me the last for .
Show Decoded

2018-05-24 05:43 METAR KHIE 240943Z AUTO 00000KT 1/2SM FG OVC001 02/02 A3006 RMK AO2 VIS M1/4V5
                 I1000 T00220017 =
2018-05-24 05:06 METAR KHIE 240906Z AUTO 00000KT 8SM BKN001 03/02 A3005 RMK AO2 T00280017 =
2018-05-24 04:52 METAR KHIE 240852Z AUTO 00000KT 10SM FEW001 03/02 A3004 RMK AO2 SLP177 T00280022
                 53013 =
2018-05-24 03:52 METAR KHIE 240752Z AUTO 04003KT 8SM SCT001 03/02 A3002 RMK AO2 SLP168 T00280022
                 =
2018-05-24 03:47 METAR KHIE 240747Z AUTO 00000KT 8SM SCT001 03/02 A3002 RMK AO2 =
2018-05-24 03:36 METAR KHIE 240736Z AUTO 00000KT 9SM BKN001 04/03 A3002 RMK AO2 T00390028 =
2018-05-24 02:58 METAR KHIE 240658Z AUTO 00000KT 3SM BR FEW001 04/03 A3001 RMK AO2 T00390033 =
2018-05-24 02:52 METAR KHIE 240652Z AUTO 00000KT 2SM BR CLR 04/03 A3000 RMK AO2 SLP162 T00390033
                 =
2018-05-24 02:06 METAR KHIE 240606Z AUTO 00000KT 4SM BR CLR 05/04 A3000 RMK AO2 T00500044 =
2018-05-24 02:01 METAR KHIE 240601Z AUTO 00000KT 1 3/4SM BR CLR 05/04 A3000 RMK AO2 VIS 1/2V5
                 T00500044 =
2018-05-24 01:52 METAR KHIE 240552Z AUTO 00000KT 9SM CLR 06/05 A3000 RMK AO2 SLP161 T00610050
                 10178 20056 51007 =
2018-05-24 00:52 METAR KHIE 240452Z AUTO 00000KT 9SM CLR 07/06 A3000 RMK AO2 SLP160 T00720061
                 402390072 =
2018-05-23 23:52 METAR KHIE 240352Z AUTO 00000KT 10SM CLR 09/08 A2999 RMK AO2 SLP156 T00940078 =
2018-05-23 22:52 METAR KHIE 240252Z AUTO 00000KT 10SM FEW060 11/09 A2998 RMK AO2 SLP153 T01110094
                 51013 =
2018-05-23 21:52 METAR KHIE 240152Z AUTO 00000KT 10SM BKN070 BKN085 14/11 A2997 RMK AO2 SLP150
                 T01390106 =
2018-05-23 20:52 METAR KHIE 240052Z AUTO 00000KT 10SM FEW055 OVC085 15/11 A2996 RMK AO2 SLP146
                 T01500106 =
2018-05-23 19:52 METAR KHIE 232352Z AUTO 35004KT 10SM FEW095 18/08 A2994 RMK AO2 SLP140 T01780078
                 10239 20178 53017 =
2018-05-23 18:52 METAR KHIE 232252Z AUTO 33008G18KT 10SM SCT055 20/08 A2992 RMK AO2 SLP134
                 T02000078 =
2018-05-23 17:52 METAR KHIE 232152Z AUTO 34009KT 10SM SCT060 BKN075 20/08 A2991 RMK AO2 SLP127
                 T02000083 =
2018-05-23 16:52 METAR KHIE 232052Z AUTO 32010KT 10SM BKN060 BKN075 BKN085 21/09 A2989 RMK AO2
                 SLP122 T02060094 52014 =
2018-05-23 15:52 METAR KHIE 231952Z AUTO 31013G22KT 10SM FEW060 22/10 A2988 RMK AO2 PK WND
                 33028/1853 SLP118 T02220100 =
2018-05-23 14:52 METAR KHIE 231852Z AUTO 33020G27KT 10SM FEW055 23/10 A2986 RMK AO2 PK WND
                 33027/1852 SLP109 T02330100 =
2018-05-23 13:52 METAR KHIE 231752Z AUTO 27011G18KT 10SM SCT055 23/12 A2985 RMK AO2 SLP106
                 T02330117 10239 20133 56016 =
2018-05-23 12:52 METAR KHIE 231652Z AUTO 27008KT 10SM FEW044 SCT100 22/13 A2986 RMK AO2 SLP112
                 T02220128 =
2018-05-23 11:52 METAR KHIE 231552Z AUTO 28006KT 10SM FEW037 21/12 A2988 RMK AO2 SLP118 T02060122
                 =
2018-05-23 10:52 METAR KHIE 231452Z AUTO 00000KT 10SM FEW024 18/12 A2990 RMK AO2 SLP125 T01780117
                 58004 =
2018-05-23 10:26 METAR KHIE 231426Z AUTO 29005KT 10SM SCT020 17/12 A2990 RMK AO2 T01720117 =
2018-05-23 09:59 METAR KHIE 231359Z AUTO VRB03KT 10SM BKN018 16/12 A2991 RMK AO2 T01610117 =
2018-05-23 09:52 METAR KHIE 231352Z AUTO 00000KT 10SM SCT018 17/12 A2991 RMK AO2 SLP129 T01670117
                 =
2018-05-23 09:09 METAR KHIE 231309Z AUTO 00000KT 10SM SCT014 BKN022 BKN027 16/12 A2991 RMK AO2
                 T01560122 =
2018-05-23 08:59 METAR KHIE 231259Z AUTO VRB03KT 10SM FEW008 BKN014 BKN024 16/13 A2992 RMK AO2
                 T01610133 =
2018-05-23 08:52 METAR KHIE 231252Z AUTO 00000KT 10SM SCT009 SCT014 BKN024 16/13 A2992 RMK AO2
                 SLP133 T01560133 =
2018-05-23 08:07 METAR KHIE 231207Z AUTO 00000KT 10SM BKN006 14/13 A2992 RMK AO2 CIG 004V011
                 T01390128 =
2018-05-23 07:52 METAR KHIE 231152Z AUTO 18003KT 10SM OVC005 13/12 A2991 RMK AO2 SLP130 60007
                 70021 T01330122 10133 20117 53009 =
2018-05-23 07:36 METAR KHIE 231136Z AUTO 18003KT 9SM OVC005 13/12 A2991 RMK AO2 T01280122 =
2018-05-23 07:25 METAR KHIE 231125Z AUTO 20003KT 9SM OVC004 13/12 A2991 RMK AO2 T01280122 =
2018-05-23 07:14 METAR KHIE 231114Z AUTO 21003KT 10SM BKN006 OVC025 13/12 A2990 RMK AO2 T01280117
                 =
2018-05-23 06:52 METAR KHIE 231052Z AUTO 00000KT 5SM BR FEW009 OVC023 12/12 A2990 RMK AO2 SLP126
                 T01220117 =
2018-05-23 06:49 METAR KHIE 231049Z AUTO 17003KT 5SM BR FEW004 SCT009 OVC023 12/12 A2989 RMK AO2
                 =
2018-05-23 06:41 METAR KHIE 231041Z AUTO 00000KT 5SM BR FEW003 BKN009 OVC023 12/12 A2989 RMK AO2
                 T01220117 =
2018-05-23 06:34 METAR KHIE 231034Z AUTO 00000KT 5SM BR SCT004 BKN010 OVC021 12/12 A2989 RMK AO2
                 CIG 007V012 T01220117 =
2018-05-23 06:25 METAR KHIE 231025Z AUTO 30003KT 5SM BR BKN004 OVC010 12/12 A2990 RMK AO2 CIG
                 002V007 T01220117 =
2018-05-23 06:16 METAR KHIE 231016Z AUTO 00000KT 6SM BR BKN005 BKN012 OVC021 12/12 A2989 RMK AO2
                 CIG 002V007 T01220117 =
2018-05-23 05:59 METAR KHIE 230959Z AUTO 00000KT 5SM BR FEW006 BKN014 OVC020 12/12 A2988 RMK AO2
                 T01220117 =
2018-05-23 05:52 METAR KHIE 230952Z AUTO 00000KT 5SM BR SCT013 OVC020 12/12 A2988 RMK AO2 SLP121
                 T01220117 =

Support USWX by starting your Amazon purchase here.